Accueil
METAR-TAF:

METAR-TAF

Aéroports :

Diepholz, Allemagne

latitude: 52-35N, longitude: 008-21E, altitude: 39 m

Observation

Le bulletin a été fait il y a 13 heures et 42 minutes, à 13:20 UTC
Vent 8 kt de sud-ouest
Température 27°C
Humidité 45%
Pression 1014 hPa
Visibilité 10 km ou plus
Quelques nuages à une hauteur de 4300 ft
Nuages fragmentés à une hauteur de 30000 ft

METAR: ETND 161320Z 22008KT 9999 FEW043 BKN300 27/14 Q1014 BLU+

Heure: 05:02 (03:02 UTC)

Prévision

Le bulletin a été fait il y a 13 heures et 37 minutes, à 13:25 UTC
Prévision valable du 16 à 13 UTC au 16 à 20 UTC
Vent 10 kt de sud-ouest
Visibilité 10 km ou plus
Nuages épars à une hauteur de 3000 ft

TAF: ETND 161325Z 1613/1620 23010KT 9999 NSW SCT030 CANCEL 1330Z/BY ETGL

Observations et prévisions météorologiques de plus de 4000 aéroports (messages METAR et TAF).

Les stations disponibles sont représentées par des disques jaunes et rouges sur la carte.

Passer la souris dessus pour voir le nom de la station.

Cliquer dessus pour voir les observations et prévisions météorologiques.

Pour changer de carte: cliquez sur les boutons verts avec une croix noire pour zoomer, sur le bouton vert avec un tiret pour effectuer un zoom arrière, ou sur les flèches vertes pour les cartes adjacentes.


METAR-TAF: